Time;durP1;ratioP1;P1;durP2;ratioP2;P2;SDS_P1;SDS_P2;PMS_P1;PMS_P2;Temp;Humidity;BMP_temperature;BMP_pressure;BME280_temperature;BME280_humidity;BME280_pressure;Samples;Min_cycle;Max_cycle;Signal;HPM_P1;HPM_P2
2021/06/05 00:01:51;;;;;;;339.17;18.75;;;17.00;99.90;;;;;;4990044;28;20381;-60
2021/06/05 00:04:18;;;;;;;287.05;16.75;;;17.00;99.90;;;;;;4985726;28;20061;-60
2021/06/05 00:06:43;;;;;;;244.05;15.20;;;17.00;99.90;;;;;;4991898;28;20169;-58
2021/06/05 00:09:10;;;;;;;12.52;10.40;;;16.90;99.90;;;;;;4992223;28;20736;-58
2021/06/05 00:11:36;;;;;;;10.10;9.13;;;16.90;99.90;;;;;;4991855;28;20121;-55
2021/06/05 00:14:05;;;;;;;11.38;10.15;;;16.90;99.90;;;;;;4988950;28;20030;-54
2021/06/05 00:16:37;;;;;;;11.20;9.80;;;16.80;99.90;;;;;;4991918;28;20542;-57
2021/06/05 00:19:04;;;;;;;13.40;9.00;;;16.80;99.90;;;;;;4984672;28;20432;-56
2021/06/05 00:21:30;;;;;;;14.65;10.35;;;16.80;99.90;;;;;;4989138;28;20069;-59
2021/06/05 00:23:56;;;;;;;13.30;9.80;;;16.80;99.90;;;;;;4984175;28;20069;-59
2021/06/05 00:26:22;;;;;;;13.63;11.13;;;16.80;99.90;;;;;;4993993;28;20440;-59
2021/06/05 00:28:48;;;;;;;13.40;9.45;;;16.80;99.90;;;;;;4997977;28;20026;-57
2021/06/05 00:31:13;;;;;;;15.80;10.32;;;16.80;99.90;;;;;;4988169;28;20101;-59
2021/06/05 00:33:39;;;;;;;14.23;9.13;;;16.80;99.90;;;;;;4991580;28;20077;-58
2021/06/05 00:36:11;;;;;;;13.75;10.18;;;16.80;99.90;;;;;;4991766;28;20076;-57
2021/06/05 00:38:38;;;;;;;17.30;10.88;;;16.80;99.90;;;;;;4986782;28;20036;-57
2021/06/05 00:41:06;;;;;;;17.42;10.93;;;16.80;99.90;;;;;;4985820;28;20085;-57
2021/06/05 00:43:37;;;;;;;16.58;13.65;;;16.90;99.90;;;;;;4988221;28;20045;-56
2021/06/05 00:46:03;;;;;;;16.33;12.00;;;16.90;99.90;;;;;;4979590;28;20527;-59
2021/06/05 00:48:28;;;;;;;15.05;12.43;;;16.90;99.90;;;;;;4990453;28;20058;-58
2021/06/05 00:50:55;;;;;;;15.50;11.32;;;17.00;99.90;;;;;;4991170;28;20105;-59
2021/06/05 00:53:24;;;;;;;17.08;13.52;;;17.00;99.90;;;;;;4990976;28;20054;-56
2021/06/05 00:55:56;;;;;;;20.17;14.40;;;17.00;99.90;;;;;;4986098;28;20031;-59
2021/06/05 00:58:22;;;;;;;19.25;12.98;;;17.00;99.90;;;;;;4990196;28;20030;-58
2021/06/05 01:01:21;;;;;;;13.10;11.23;;;17.00;99.90;;;;;;4992582;28;20030;-58
2021/06/05 01:03:47;;;;;;;12.80;11.43;;;17.00;99.90;;;;;;4987098;28;20507;-58
2021/06/05 01:06:37;;;;;;;13.35;11.98;;;17.00;99.90;;;;;;4988604;28;20089;-57
2021/06/05 01:09:10;;;;;;;13.75;12.05;;;17.00;99.90;;;;;;4983681;28;20024;-56
2021/06/05 01:11:50;;;;;;;18.48;11.82;;;17.00;99.90;;;;;;4990862;28;20117;-58
2021/06/05 01:14:28;;;;;;;16.73;12.25;;;17.00;99.90;;;;;;4990891;28;20026;-57
2021/06/05 01:16:58;;;;;;;16.70;11.45;;;17.00;99.90;;;;;;4989975;28;20038;-58
2021/06/05 01:19:46;;;;;;;18.90;12.02;;;17.00;99.90;;;;;;4989568;28;20034;-59
2021/06/05 01:22:27;;;;;;;129.43;14.85;;;17.00;99.90;;;;;;4980074;28;20105;-58
2021/06/05 01:25:04;;;;;;;212.60;14.60;;;17.00;99.90;;;;;;4990770;28;20042;-55
2021/06/05 01:27:34;;;;;;;27.50;11.80;;;17.00;99.90;;;;;;4990282;28;20022;-58
2021/06/05 01:30:07;;;;;;;16.30;11.18;;;16.90;99.90;;;;;;4985353;28;20026;-57
2021/06/05 01:32:33;;;;;;;24.10;12.95;;;16.90;99.90;;;;;;4990578;28;20036;-58
2021/06/05 01:34:59;;;;;;;18.35;11.15;;;16.90;99.90;;;;;;4987175;28;20518;-59
2021/06/05 01:37:27;;;;;;;13.63;10.85;;;17.00;99.90;;;;;;4997307;28;20038;-60
2021/06/05 01:39:54;;;;;;;19.73;11.50;;;17.00;99.90;;;;;;4983698;28;20634;-56
2021/06/05 01:42:28;;;;;;;16.02;11.93;;;17.00;99.90;;;;;;4987958;28;20057;-54
2021/06/05 01:44:56;;;;;;;12.95;11.65;;;17.00;99.90;;;;;;4979068;28;20032;-55
2021/06/05 01:47:22;;;;;;;15.52;12.57;;;17.00;99.90;;;;;;4990292;28;20101;-57
2021/06/05 01:49:49;;;;;;;14.25;12.75;;;17.00;99.90;;;;;;4990037;28;20113;-55
2021/06/05 01:52:23;;;;;;;15.85;13.02;;;17.10;99.90;;;;;;4990570;28;20060;-58
2021/06/05 01:55:08;;;;;;;20.95;13.48;;;17.10;99.90;;;;;;4990112;28;20034;-58
2021/06/05 01:57:36;;;;;;;13.32;11.75;;;17.10;99.90;;;;;;4987326;28;20022;-57
2021/06/05 02:00:10;;;;;;;14.18;12.25;;;17.10;99.90;;;;;;4983782;28;20117;-56
2021/06/05 02:02:35;;;;;;;17.05;13.68;;;17.10;99.90;;;;;;4983777;28;20488;-57
2021/06/05 02:05:01;;;;;;;13.25;11.70;;;17.10;99.90;;;;;;4989547;28;20093;-57
2021/06/05 02:07:27;;;;;;;15.18;12.43;;;17.10;99.90;;;;;;4990063;28;20045;-58
2021/06/05 02:09:52;;;;;;;18.42;12.90;;;17.20;99.90;;;;;;4990028;28;20030;-59
2021/06/05 02:12:27;;;;;;;16.35;12.75;;;17.20;99.90;;;;;;4991191;28;20543;-59
2021/06/05 02:15:01;;;;;;;16.70;14.32;;;17.20;99.90;;;;;;4993822;28;20030;-59
2021/06/05 02:17:29;;;;;;;18.15;14.65;;;17.10;99.90;;;;;;4994577;28;20026;-59
2021/06/05 02:20:00;;;;;;;16.02;13.00;;;17.10;99.90;;;;;;4991274;28;20022;-58
2021/06/05 02:22:29;;;;;;;17.25;14.02;;;17.10;99.90;;;;;;4987856;28;20041;-55
2021/06/05 02:24:58;;;;;;;19.58;14.07;;;17.10;99.90;;;;;;4993836;28;20030;-57
2021/06/05 02:27:28;;;;;;;16.02;12.57;;;17.10;99.90;;;;;;4994055;28;20026;-58
2021/06/05 02:29:55;;;;;;;18.30;13.45;;;17.10;99.90;;;;;;4990003;28;20018;-59
2021/06/05 02:32:26;;;;;;;15.07;13.57;;;17.10;99.90;;;;;;4989098;28;20049;-59
2021/06/05 02:34:54;;;;;;;15.55;12.75;;;17.10;99.90;;;;;;4993279;28;20034;-59
2021/06/05 02:37:22;;;;;;;20.38;13.85;;;17.10;99.90;;;;;;4994144;28;20463;-55
2021/06/05 02:39:48;;;;;;;19.40;12.43;;;17.10;99.90;;;;;;4993313;28;20022;-59
2021/06/05 02:42:18;;;;;;;14.68;12.70;;;17.10;99.90;;;;;;4994725;28;20029;-58
2021/06/05 02:44:47;;;;;;;13.77;11.88;;;17.00;99.90;;;;;;4984072;28;20037;-59
2021/06/05 02:47:15;;;;;;;38.17;11.52;;;17.10;99.90;;;;;;4987444;28;20037;-58
2021/06/05 02:49:42;;;;;;;52.80;12.45;;;17.00;99.90;;;;;;4993441;28;20085;-59
2021/06/05 02:52:10;;;;;;;31.90;11.93;;;17.00;99.90;;;;;;4993797;28;20092;-57
2021/06/05 02:54:37;;;;;;;14.02;11.07;;;17.00;99.90;;;;;;4993793;28;20038;-58
2021/06/05 02:57:05;;;;;;;12.88;11.52;;;17.00;99.90;;;;;;4988752;28;20027;-58
2021/06/05 02:59:31;;;;;;;12.82;11.20;;;17.00;99.90;;;;;;4992077;28;20108;-57
2021/06/05 03:01:57;;;;;;;14.00;12.02;;;17.00;99.90;;;;;;4988948;28;20031;-59
2021/06/05 03:04:23;;;;;;;17.15;13.07;;;17.00;99.90;;;;;;4991215;28;20034;-60
2021/06/05 03:06:50;;;;;;;16.95;13.05;;;16.90;99.90;;;;;;4983854;28;20403;-60
2021/06/05 03:09:16;;;;;;;19.27;13.57;;;17.00;99.90;;;;;;4992195;28;20483;-59
2021/06/05 03:11:44;;;;;;;28.45;13.07;;;16.90;99.90;;;;;;4992035;28;20042;-58
2021/06/05 03:14:10;;;;;;;21.02;15.25;;;16.90;99.90;;;;;;4992340;28;20026;-57
2021/06/05 03:16:36;;;;;;;23.23;15.50;;;16.90;99.90;;;;;;4991932;28;20030;-58
2021/06/05 03:19:02;;;;;;;21.05;18.58;;;16.90;99.90;;;;;;4991576;28;20105;-58
2021/06/05 03:21:28;;;;;;;25.00;17.92;;;16.90;99.90;;;;;;4988692;28;20046;-59
2021/06/05 03:23:53;;;;;;;25.10;18.35;;;16.90;99.90;;;;;;4991427;28;20026;-59
2021/06/05 03:26:20;;;;;;;27.33;18.02;;;16.90;99.90;;;;;;4981798;28;20038;-59
2021/06/05 03:28:46;;;;;;;31.15;18.73;;;16.80;99.90;;;;;;4991910;28;20034;-59
2021/06/05 03:31:13;;;;;;;25.42;19.67;;;16.80;99.90;;;;;;4991543;28;20496;-58
2021/06/05 03:33:39;;;;;;;30.70;20.38;;;16.80;99.90;;;;;;4992012;28;20038;-58
2021/06/05 03:36:06;;;;;;;28.52;21.70;;;16.80;99.90;;;;;;4990055;28;20031;-58
2021/06/05 03:38:33;;;;;;;31.65;21.40;;;16.80;99.90;;;;;;4984449;28;20096;-59
2021/06/05 03:40:59;;;;;;;32.53;22.42;;;16.90;99.90;;;;;;4985067;28;20022;-57
2021/06/05 03:43:26;;;;;;;32.47;24.13;;;16.90;99.90;;;;;;4991715;28;20105;-58
2021/06/05 03:45:52;;;;;;;30.85;20.85;;;16.90;99.90;;;;;;4991379;28;20031;-58
2021/06/05 03:48:18;;;;;;;25.52;19.33;;;16.90;99.90;;;;;;4991980;28;20113;-59
2021/06/05 03:50:50;;;;;;;24.80;18.05;;;17.00;99.90;;;;;;4990937;28;20024;-58
2021/06/05 03:53:16;;;;;;;27.48;19.45;;;17.00;99.90;;;;;;4990357;28;20026;-55
2021/06/05 03:55:43;;;;;;;26.10;19.52;;;17.00;99.90;;;;;;4987791;28;20069;-59
2021/06/05 03:58:10;;;;;;;30.92;22.35;;;17.10;99.90;;;;;;4991509;28;20022;-58
2021/06/05 04:00:39;;;;;;;29.10;21.83;;;17.10;99.90;;;;;;4991062;28;20089;-58
2021/06/05 04:03:05;;;;;;;26.73;20.77;;;17.10;99.90;;;;;;4991643;28;20420;-58
2021/06/05 04:05:32;;;;;;;37.13;25.83;;;17.10;99.90;;;;;;4991050;28;20375;-59
2021/06/05 04:07:58;;;;;;;31.88;23.58;;;17.10;99.90;;;;;;4986491;28;62664;-55
2021/06/05 04:10:25;;;;;;;35.50;25.67;;;17.10;99.90;;;;;;4985287;28;20117;-58
2021/06/05 04:12:53;;;;;;;31.50;22.38;;;17.10;99.90;;;;;;4985432;28;20105;-58
2021/06/05 04:15:20;;;;;;;27.00;20.58;;;17.20;99.90;;;;;;4982119;28;20384;-59
2021/06/05 04:17:46;;;;;;;26.15;20.30;;;17.10;99.90;;;;;;4984671;28;20526;-56
2021/06/05 04:20:15;;;;;;;28.73;21.10;;;17.10;99.90;;;;;;4990160;28;20034;-57
2021/06/05 04:22:42;;;;;;;30.45;22.92;;;17.10;99.90;;;;;;4991480;28;20026;-58
2021/06/05 04:25:09;;;;;;;37.58;24.33;;;17.10;99.90;;;;;;4992466;28;20057;-57
2021/06/05 04:27:34;;;;;;;37.58;26.33;;;17.00;99.90;;;;;;4991626;28;20488;-56
2021/06/05 04:30:00;;;;;;;42.58;28.33;;;17.00;99.90;;;;;;4984017;28;20030;-59
2021/06/05 04:32:25;;;;;;;41.15;28.52;;;17.10;99.90;;;;;;4981425;28;20031;-59
2021/06/05 04:34:51;;;;;;;45.58;29.73;;;17.10;99.90;;;;;;4990520;28;20472;-57
2021/06/05 04:37:17;;;;;;;40.17;27.17;;;17.00;99.90;;;;;;4991746;28;20632;-59
2021/06/05 04:39:42;;;;;;;33.90;24.90;;;17.00;99.90;;;;;;4991369;28;20404;-60
2021/06/05 04:42:09;;;;;;;30.50;24.35;;;17.00;99.90;;;;;;4991772;28;20025;-59
2021/06/05 04:44:35;;;;;;;30.45;22.88;;;17.00;99.90;;;;;;4991767;28;20487;-59
2021/06/05 04:47:01;;;;;;;29.70;22.85;;;17.00;99.90;;;;;;4986255;28;20066;-56
2021/06/05 04:49:26;;;;;;;34.50;24.00;;;17.00;99.90;;;;;;4990638;28;20124;-56
2021/06/05 04:51:52;;;;;;;35.20;25.45;;;17.00;99.90;;;;;;4991167;28;20049;-59
2021/06/05 04:54:18;;;;;;;38.03;26.70;;;16.90;99.90;;;;;;4991395;28;20038;-58
2021/06/05 04:56:47;;;;;;;36.33;26.23;;;16.90;99.90;;;;;;4991062;28;20576;-59
2021/06/05 04:59:14;;;;;;;31.88;25.67;;;16.90;99.90;;;;;;4990860;28;20059;-59
2021/06/05 05:01:40;;;;;;;33.90;25.92;;;16.90;99.90;;;;;;4991152;28;20038;-59
2021/06/05 05:04:06;;;;;;;37.08;26.98;;;16.80;99.90;;;;;;4987607;28;20027;-57
2021/06/05 05:06:32;;;;;;;43.75;29.00;;;16.90;99.90;;;;;;4991126;28;20046;-58
2021/06/05 05:08:58;;;;;;;40.45;29.23;;;16.90;99.90;;;;;;4989688;28;20033;-58
2021/06/05 05:11:24;;;;;;;44.65;29.25;;;16.90;99.90;;;;;;4990650;28;20026;-58
2021/06/05 05:13:50;;;;;;;41.17;27.55;;;16.90;99.90;;;;;;4991075;28;20026;-57
2021/06/05 05:16:16;;;;;;;55.40;32.15;;;16.90;99.90;;;;;;4981607;28;20074;-58
2021/06/05 05:18:45;;;;;;;44.63;30.58;;;16.90;99.90;;;;;;4986851;28;20101;-57
2021/06/05 05:21:11;;;;;;;45.60;29.75;;;17.00;99.90;;;;;;4986815;28;20439;-59
2021/06/05 05:23:37;;;;;;;57.00;34.90;;;17.00;99.90;;;;;;4991337;28;20023;-59
2021/06/05 05:26:05;;;;;;;56.55;35.20;;;17.00;99.90;;;;;;4990341;28;20079;-58
2021/06/05 05:28:32;;;;;;;58.63;37.35;;;17.00;99.90;;;;;;4991196;28;20073;-58
2021/06/05 05:31:00;;;;;;;56.25;35.22;;;17.10;99.90;;;;;;4991252;28;20468;-59
2021/06/05 05:33:26;;;;;;;54.67;35.13;;;17.10;99.90;;;;;;4986454;28;20096;-57
2021/06/05 05:35:55;;;;;;;53.00;33.83;;;17.20;99.90;;;;;;4985217;28;20030;-58
2021/06/05 05:38:22;;;;;;;57.47;36.70;;;17.20;99.90;;;;;;4987158;28;20030;-59
2021/06/05 05:40:48;;;;;;;61.08;36.75;;;17.30;99.90;;;;;;4990285;28;20053;-55
2021/06/05 05:43:14;;;;;;;56.03;32.70;;;17.30;99.90;;;;;;4990640;28;20025;-57
2021/06/05 05:45:40;;;;;;;56.95;33.63;;;17.30;99.90;;;;;;4990580;28;20034;-58
2021/06/05 05:48:09;;;;;;;53.03;33.13;;;17.30;99.90;;;;;;4989983;28;20087;-59
2021/06/05 05:50:37;;;;;;;58.58;36.35;;;17.40;99.90;;;;;;4990340;28;20030;-56
2021/06/05 05:53:03;;;;;;;60.90;36.50;;;17.40;99.90;;;;;;4990166;28;20113;-57
2021/06/05 05:55:29;;;;;;;61.90;33.97;;;17.40;99.90;;;;;;4986535;28;20117;-60
2021/06/05 05:57:55;;;;;;;53.78;36.20;;;17.40;99.90;;;;;;4990752;28;20102;-57
2021/06/05 06:00:28;;;;;;;56.15;34.65;;;17.30;99.90;;;;;;4989641;28;20030;-58
2021/06/05 06:02:54;;;;;;;52.95;33.50;;;17.40;99.90;;;;;;4990754;28;20034;-58
2021/06/05 06:05:20;;;;;;;50.72;33.65;;;17.40;99.90;;;;;;4989914;28;20133;-59
2021/06/05 06:07:45;;;;;;;45.75;29.70;;;17.40;99.90;;;;;;4988986;28;20046;-59
2021/06/05 06:10:13;;;;;;;48.20;32.92;;;17.40;99.90;;;;;;4989090;28;20027;-57
2021/06/05 06:12:39;;;;;;;54.05;33.00;;;17.40;99.90;;;;;;4987967;28;20049;-58
2021/06/05 06:15:10;;;;;;;46.75;34.75;;;17.50;99.90;;;;;;4990035;28;20046;-58
2021/06/05 06:17:36;;;;;;;55.47;35.13;;;17.50;99.90;;;;;;4993451;28;20403;-59
2021/06/05 06:20:04;;;;;;;49.65;33.85;;;17.50;99.90;;;;;;4982584;28;20635;-59
2021/06/05 06:22:29;;;;;;;54.47;37.33;;;17.50;99.90;;;;;;4990372;28;20038;-58
2021/06/05 06:24:55;;;;;;;56.08;35.38;;;17.50;99.90;;;;;;4986713;28;20409;-59
2021/06/05 06:27:21;;;;;;;54.50;33.83;;;17.50;99.90;;;;;;4976391;28;20034;-57
2021/06/05 06:29:47;;;;;;;57.15;33.85;;;17.50;99.90;;;;;;4989933;28;20031;-59
2021/06/05 06:32:12;;;;;;;53.78;33.88;;;17.60;99.90;;;;;;4988584;28;20034;-58
2021/06/05 06:34:38;;;;;;;47.58;32.60;;;17.60;99.90;;;;;;4989814;28;20046;-58
2021/06/05 06:37:06;;;;;;;49.83;30.92;;;17.70;99.90;;;;;;4988833;28;20027;-59
2021/06/05 06:39:32;;;;;;;44.70;29.48;;;17.80;99.90;;;;;;4990114;28;20506;-58
2021/06/05 06:41:58;;;;;;;40.80;28.98;;;17.80;99.90;;;;;;4985574;28;20040;-59
2021/06/05 06:44:23;;;;;;;40.13;27.13;;;17.80;99.90;;;;;;4988471;28;20026;-58
2021/06/05 06:46:50;;;;;;;39.00;26.95;;;17.90;99.90;;;;;;4983537;28;20326;-58
2021/06/05 06:49:18;;;;;;;47.03;25.65;;;17.80;99.90;;;;;;4989629;28;20081;-58
2021/06/05 06:51:45;;;;;;;39.95;27.00;;;17.90;99.90;;;;;;4990187;28;20089;-60
2021/06/05 06:54:11;;;;;;;34.60;24.67;;;17.90;99.90;;;;;;4990180;28;20404;-58
2021/06/05 06:56:37;;;;;;;38.38;24.67;;;18.00;99.90;;;;;;4982024;28;20030;-59
2021/06/05 06:59:05;;;;;;;32.85;22.67;;;18.00;99.90;;;;;;4988758;28;20564;-57
2021/06/05 07:01:30;;;;;;;31.10;22.95;;;18.10;99.90;;;;;;4966460;28;20054;-58
2021/06/05 07:03:56;;;;;;;35.03;22.42;;;18.10;99.90;;;;;;4991765;28;20411;-58
2021/06/05 07:06:23;;;;;;;29.77;21.30;;;18.00;99.90;;;;;;4990599;28;20038;-59
2021/06/05 07:08:49;;;;;;;34.10;22.00;;;18.10;99.90;;;;;;4991243;28;20062;-56
2021/06/05 07:11:17;;;;;;;31.35;23.27;;;18.20;99.90;;;;;;4992306;28;20115;-57
2021/06/05 07:13:44;;;;;;;27.60;20.17;;;18.30;99.90;;;;;;4990346;28;20551;-59
2021/06/05 07:16:10;;;;;;;28.88;20.85;;;18.60;99.90;;;;;;4992784;28;20026;-59
2021/06/05 07:18:37;;;;;;;24.60;18.73;;;18.90;99.90;;;;;;4992332;28;20026;-56
2021/06/05 07:21:05;;;;;;;25.55;18.27;;;19.10;99.90;;;;;;4992293;28;20030;-59
2021/06/05 07:23:33;;;;;;;24.40;18.02;;;19.10;99.90;;;;;;4993080;28;20042;-59
2021/06/05 07:26:01;;;;;;;27.52;18.42;;;19.20;99.90;;;;;;4987655;28;20526;-59
2021/06/05 07:28:35;;;;;;;25.42;18.00;;;19.20;99.90;;;;;;4992467;28;20035;-56
2021/06/05 07:31:03;;;;;;;23.88;18.23;;;19.10;99.90;;;;;;4988692;28;20042;-56
2021/06/05 07:33:29;;;;;;;21.73;17.13;;;19.10;99.90;;;;;;4989508;28;20030;-57
2021/06/05 07:35:56;;;;;;;23.58;18.40;;;19.00;99.90;;;;;;4988677;28;20114;-57
2021/06/05 07:38:24;;;;;;;23.25;16.90;;;18.90;99.90;;;;;;4989634;28;20732;-59
2021/06/05 07:40:50;;;;;;;23.75;17.85;;;18.80;99.90;;;;;;4992888;28;20026;-59
2021/06/05 07:43:19;;;;;;;26.30;17.58;;;18.60;99.90;;;;;;4989359;28;20042;-58
2021/06/05 07:45:44;;;;;;;20.60;15.95;;;18.70;99.90;;;;;;4992110;28;20041;-58
2021/06/05 07:48:12;;;;;;;20.95;15.88;;;18.80;99.90;;;;;;4992304;28;20026;-59
2021/06/05 07:50:38;;;;;;;21.88;15.82;;;18.80;99.90;;;;;;4990469;28;20116;-58
2021/06/05 07:53:03;;;;;;;18.40;15.35;;;18.90;99.90;;;;;;4980934;28;20099;-59
2021/06/05 07:55:30;;;;;;;19.85;14.27;;;19.00;99.90;;;;;;4992699;28;20539;-59
2021/06/05 07:57:55;;;;;;;22.27;14.15;;;19.10;99.90;;;;;;4991547;28;20029;-59
2021/06/05 08:00:25;;;;;;;21.15;14.43;;;19.40;99.90;;;;;;4972530;28;20039;-55
2021/06/05 08:02:51;;;;;;;23.33;15.45;;;19.60;99.90;;;;;;4985718;28;20050;-57
2021/06/05 08:05:18;;;;;;;16.65;14.00;;;19.80;99.90;;;;;;4987274;28;20026;-58
2021/06/05 08:07:43;;;;;;;19.25;14.45;;;20.10;99.90;;;;;;4985026;28;20031;-59
2021/06/05 08:10:11;;;;;;;21.80;14.95;;;20.20;99.90;;;;;;4979888;28;20081;-57
2021/06/05 08:12:37;;;;;;;24.55;14.43;;;20.30;99.90;;;;;;4988693;28;20463;-59
2021/06/05 08:15:05;;;;;;;21.45;14.07;;;20.50;99.90;;;;;;4990209;28;20381;-60
2021/06/05 08:17:31;;;;;;;16.98;12.88;;;20.70;99.90;;;;;;4991238;28;20580;-57
2021/06/05 08:19:57;;;;;;;20.08;15.13;;;21.30;99.90;;;;;;4989590;28;20113;-59
2021/06/05 08:22:26;;;;;;;20.20;15.23;;;21.40;99.90;;;;;;4988831;28;20030;-60
2021/06/05 08:24:51;;;;;;;20.27;14.70;;;21.50;99.90;;;;;;4986217;28;20040;-58
2021/06/05 08:27:17;;;;;;;18.27;13.95;;;21.40;99.90;;;;;;4985524;28;20026;-60
2021/06/05 08:29:43;;;;;;;25.63;16.70;;;21.20;99.90;;;;;;4986248;28;20027;-59
2021/06/05 08:32:09;;;;;;;19.52;13.68;;;21.10;99.90;;;;;;4983667;28;20030;-56
2021/06/05 08:34:35;;;;;;;22.23;14.25;;;21.30;99.90;;;;;;4991378;28;20040;-59
2021/06/05 08:37:00;;;;;;;15.98;13.15;;;21.20;99.90;;;;;;4990955;28;20133;-59
2021/06/05 08:39:26;;;;;;;17.17;13.20;;;21.10;99.90;;;;;;4989033;28;20027;-60
2021/06/05 08:41:55;;;;;;;18.15;14.15;;;21.00;99.90;;;;;;4983681;28;20520;-58
2021/06/05 08:44:28;;;;;;;21.83;13.80;;;20.70;99.90;;;;;;4983093;28;20023;-59
2021/06/05 08:47:00;;;;;;;18.60;14.07;;;20.90;99.90;;;;;;4990183;28;20045;-58
2021/06/05 08:49:30;;;;;;;21.35;15.70;;;20.80;99.90;;;;;;4991531;28;20065;-57
2021/06/05 08:51:55;;;;;;;18.73;15.20;;;20.90;99.90;;;;;;4990756;28;20070;-58
2021/06/05 08:54:45;;;;;;;19.45;14.88;;;21.10;99.90;;;;;;4991339;28;20065;-57
2021/06/05 08:57:31;;;;;;;17.95;13.77;;;21.50;99.90;;;;;;4990847;28;20567;-59
2021/06/05 09:00:05;;;;;;;21.75;14.27;;;21.60;99.90;;;;;;4986173;28;20031;-58
2021/06/05 09:02:32;;;;;;;20.48;15.57;;;21.50;99.90;;;;;;4969903;28;20049;-60
2021/06/05 09:04:57;;;;;;;18.70;15.10;;;21.90;99.90;;;;;;4990264;28;20034;-60
2021/06/05 09:07:24;;;;;;;15.73;13.25;;;22.00;99.90;;;;;;4989827;28;20481;-60
2021/06/05 09:09:51;;;;;;;19.92;15.32;;;22.10;99.90;;;;;;4988058;28;20496;-59
2021/06/05 09:12:18;;;;;;;18.55;14.88;;;22.20;99.90;;;;;;4987910;28;20491;-58
2021/06/05 09:14:45;;;;;;;19.83;14.80;;;22.40;99.90;;;;;;4983109;28;20563;-59
2021/06/05 09:17:44;;;;;;;17.52;14.27;;;22.30;99.90;;;;;;4982799;28;20077;-58
2021/06/05 09:20:10;;;;;;;21.70;15.45;;;22.40;99.90;;;;;;4984380;28;20027;-57
2021/06/05 09:22:42;;;;;;;20.27;15.32;;;22.50;99.90;;;;;;4983357;28;20038;-58
2021/06/05 09:25:30;;;;;;;22.95;16.10;;;22.40;99.90;;;;;;4985377;28;20030;-58
2021/06/05 09:28:32;;;;;;;23.73;16.48;;;22.40;99.90;;;;;;4989589;28;20110;-59
2021/06/05 09:31:22;;;;;;;23.42;17.08;;;22.40;99.90;;;;;;4922799;29;20027;-59
2021/06/05 09:33:48;;;;;;;22.80;17.75;;;22.70;99.90;;;;;;4986630;28;20054;-59
2021/06/05 09:36:34;;;;;;;26.65;18.98;;;22.70;99.90;;;;;;4988490;28;20040;-59
2021/06/05 09:39:05;;;;;;;22.50;17.50;;;23.00;99.90;;;;;;4988259;28;20098;-58
2021/06/05 09:41:34;;;;;;;21.67;17.48;;;22.70;99.90;;;;;;4990015;28;20038;-61
2021/06/05 09:44:20;;;;;;;21.05;17.60;;;22.60;99.90;;;;;;4986808;28;20034;-58
2021/06/05 09:47:02;;;;;;;24.10;17.77;;;22.80;99.90;;;;;;4988945;28;20034;-58
2021/06/05 09:49:47;;;;;;;24.17;18.40;;;23.00;99.90;;;;;;4985613;28;20038;-58
2021/06/05 09:52:25;;;;;;;26.95;19.45;;;23.00;99.90;;;;;;4987620;28;20026;-58
2021/06/05 09:54:53;;;;;;;23.63;18.00;;;23.10;99.90;;;;;;4989942;28;20049;-59
2021/06/05 09:57:31;;;;;;;21.38;16.33;;;23.30;99.90;;;;;;4984551;28;20031;-58
2021/06/05 10:00:18;;;;;;;26.27;18.65;;;23.90;99.90;;;;;;4986556;28;20432;-59
2021/06/05 10:02:49;;;;;;;22.40;18.40;;;24.00;99.90;;;;;;4969739;28;20584;-55
2021/06/05 10:05:23;;;;;;;19.67;16.95;;;24.00;99.90;;;;;;4988202;28;20171;-59
2021/06/05 10:07:52;;;;;;;24.42;19.05;;;24.30;99.90;;;;;;4981642;28;20037;-59
2021/06/05 10:10:39;;;;;;;25.58;17.77;;;25.00;99.90;;;;;;4986001;28;20030;-59
2021/06/05 10:13:11;;;;;;;20.77;17.15;;;24.60;99.90;;;;;;4982062;28;20031;-58
2021/06/05 10:15:49;;;;;;;19.75;17.73;;;24.40;99.90;;;;;;4990175;28;20034;-59
2021/06/05 10:18:19;;;;;;;21.48;19.05;;;24.00;99.90;;;;;;4983513;28;20018;-59
2021/06/05 10:20:51;;;;;;;19.98;16.52;;;23.90;99.90;;;;;;4988806;28;20415;-57
2021/06/05 10:23:37;;;;;;;21.13;16.90;;;24.00;99.90;;;;;;4978223;28;20023;-59
2021/06/05 10:26:10;;;;;;;21.35;16.98;;;24.40;99.90;;;;;;4980510;28;21812;-58
2021/06/05 10:28:39;;;;;;;19.95;16.73;;;24.30;99.90;;;;;;4981709;28;20435;-60
2021/06/05 10:31:10;;;;;;;23.27;17.30;;;24.40;99.90;;;;;;4979793;28;20026;-60
2021/06/05 10:33:47;;;;;;;19.90;16.20;;;24.10;99.90;;;;;;4984804;28;20025;-59
2021/06/05 10:36:18;;;;;;;17.60;14.93;;;24.50;99.90;;;;;;4983396;28;20027;-59
2021/06/05 10:38:51;;;;;;;20.67;16.38;;;24.50;99.90;;;;;;4981915;28;20031;-59
2021/06/05 10:41:23;;;;;;;16.20;13.23;;;24.80;99.90;;;;;;4984169;28;20026;-60
2021/06/05 10:43:50;;;;;;;18.50;15.15;;;25.30;99.90;;;;;;4984578;28;20023;-61
2021/06/05 10:46:38;;;;;;;17.60;14.60;;;25.20;99.90;;;;;;4977219;28;20086;-60
2021/06/05 10:49:33;;;;;;;17.35;14.77;;;25.00;99.90;;;;;;4981874;28;20042;-59
2021/06/05 10:52:24;;;;;;;19.45;16.02;;;24.80;99.90;;;;;;4979459;28;20026;-59
2021/06/05 10:54:57;;;;;;;17.85;14.50;;;24.60;99.90;;;;;;4981880;28;20027;-60
2021/06/05 10:57:32;;;;;;;19.25;16.00;;;24.70;99.90;;;;;;4984973;28;20484;-59
2021/06/05 11:00:24;;;;;;;23.08;16.70;;;24.40;99.90;;;;;;4983530;28;20018;-59
2021/06/05 11:02:56;;;;;;;18.85;14.95;;;24.10;99.90;;;;;;4967820;28;20043;-59
2021/06/05 11:05:28;;;;;;;19.30;14.55;;;24.00;99.90;;;;;;4983250;28;20791;-58
2021/06/05 11:08:12;;;;;;;19.20;14.68;;;23.90;99.90;;;;;;4983014;28;20073;-59
2021/06/05 11:10:49;;;;;;;22.27;15.60;;;23.70;99.90;;;;;;4987354;28;20045;-59
2021/06/05 11:13:38;;;;;;;27.10;18.25;;;23.50;99.90;;;;;;4992461;28;20046;-58
2021/06/05 11:16:09;;;;;;;29.23;20.77;;;23.20;99.90;;;;;;4981188;28;20050;-58
2021/06/05 11:18:42;;;;;;;28.02;20.85;;;23.00;99.90;;;;;;4977619;28;20424;-57
2021/06/05 11:21:20;;;;;;;24.58;18.63;;;22.80;99.90;;;;;;4996440;28;20042;-59
2021/06/05 11:23:58;;;;;;;25.95;19.10;;;23.10;99.90;;;;;;4997627;28;20026;-57
2021/06/05 11:26:42;;;;;;;27.63;20.52;;;23.30;99.90;;;;;;5006270;28;20042;-60
2021/06/05 11:29:22;;;;;;;23.27;18.67;;;23.60;99.90;;;;;;5001344;28;20022;-60
2021/06/05 11:31:56;;;;;;;22.95;17.50;;;23.90;99.90;;;;;;5002543;28;20033;-57
2021/06/05 11:34:37;;;;;;;24.02;17.08;;;24.20;99.90;;;;;;5018447;28;20040;-58
2021/06/05 11:37:06;;;;;;;19.42;15.52;;;24.60;99.90;;;;;;5016466;28;20503;-59
2021/06/05 11:39:31;;;;;;;20.45;16.17;;;24.50;99.90;;;;;;5017774;28;20034;-59
2021/06/05 11:42:37;;;;;;;21.60;15.93;;;24.70;99.90;;;;;;5016333;28;20032;-59
2021/06/05 11:45:02;;;;;;;24.55;18.80;;;25.30;99.90;;;;;;4936504;28;20551;-61
2021/06/05 11:47:31;;;;;;;24.48;18.77;;;25.50;99.90;;;;;;4939724;29;20082;-60
2021/06/05 11:50:11;;;;;;;25.50;17.70;;;25.40;99.90;;;;;;4974763;28;20069;-61
2021/06/05 11:52:54;;;;;;;18.73;15.95;;;25.10;99.90;;;;;;5015550;28;20092;-60
2021/06/05 11:55:46;;;;;;;24.00;19.05;;;25.10;99.90;;;;;;5011055;28;20022;-58
2021/06/05 11:58:20;;;;;;;24.83;18.88;;;25.00;99.90;;;;;;5017252;28;20112;-60
2021/06/05 12:01:01;;;;;;;23.45;18.00;;;25.20;99.90;;;;;;5014742;28;20400;-58
2021/06/05 12:03:37;;;;;;;25.17;18.85;;;25.10;99.90;;;;;;4993303;28;20056;-59
2021/06/05 12:06:19;;;;;;;20.85;18.02;;;25.30;99.90;;;;;;5004058;28;20034;-58
2021/06/05 12:08:46;;;;;;;23.37;17.63;;;25.30;99.90;;;;;;5009568;28;20038;-59
2021/06/05 12:11:57;;;;;;;20.55;17.42;;;24.80;99.90;;;;;;5010133;28;20018;-60
2021/06/05 12:14:41;;;;;;;21.77;17.20;;;24.50;99.90;;;;;;4994800;28;20037;-60
2021/06/05 12:17:21;;;;;;;23.58;18.45;;;24.60;99.90;;;;;;5003031;28;20025;-58
2021/06/05 12:19:47;;;;;;;21.50;16.48;;;24.80;99.90;;;;;;5014702;28;20025;-60
2021/06/05 12:22:29;;;;;;;20.90;18.05;;;25.30;99.90;;;;;;5013592;28;20021;-60
2021/06/05 12:24:55;;;;;;;21.25;16.60;;;25.50;99.90;;;;;;5008554;28;20021;-60
2021/06/05 12:27:31;;;;;;;20.45;16.58;;;25.80;99.90;;;;;;5003778;28;20037;-59
2021/06/05 12:30:28;;;;;;;22.70;17.98;;;26.00;99.40;;;;;;5007987;28;20100;-60
2021/06/05 12:32:59;;;;;;;26.63;18.65;;;26.00;99.90;;;;;;5011409;28;20040;-60
2021/06/05 12:35:28;;;;;;;27.52;20.08;;;25.70;99.90;;;;;;5011091;28;20053;-60
2021/06/05 12:37:59;;;;;;;29.42;19.67;;;25.80;99.90;;;;;;5013102;28;20057;-59
2021/06/05 12:40:38;;;;;;;28.92;21.92;;;25.20;99.90;;;;;;5021014;28;20057;-60
2021/06/05 12:43:06;;;;;;;28.85;19.45;;;25.00;99.90;;;;;;5011290;28;20104;-61
2021/06/05 12:45:33;;;;;;;27.92;21.70;;;24.90;99.90;;;;;;5019426;28;20084;-60